Terminal Aerodrome Forecast
Issued by NWS

Home | Current Version | Previous Version | Text Only | Print | Product List | Glossary On
Versions: 1 2 3 4 5 6 7 8 9 10 11 12 13 14 15
000
FTUS44 KLIX 271100
TAFGPT
TAF
KGPT 271127Z 2712/2812 13015KT P6SM OVC025
      TEMPO 2712/2716 1SM SHRA BR BKN008 OVC015
     FM271600 12010KT 3SM SHRA BR OVC015
     FM280000 15009KT 1SM +SHRA BR OVC005=

USA.gov is the U.S. government's official web portal to all federal, state and local government web resources and services.